createdAt,value
2018-07-20T00:01:13.805Z,1004.08
2018-07-20T00:02:28.495Z,1004.09
2018-07-20T00:03:42.958Z,1004.1
2018-07-20T00:04:58.005Z,1004.06
2018-07-20T00:06:12.459Z,1004.12
2018-07-20T00:07:27.140Z,1004.08
2018-07-20T00:08:42.192Z,1004.01
2018-07-20T00:09:57.589Z,1004.03
2018-07-20T00:11:11.830Z,1004.01
2018-07-20T00:12:26.824Z,1004.01
2018-07-20T00:13:41.824Z,1003.94
2018-07-20T00:14:56.775Z,1004.01
2018-07-20T00:16:11.261Z,1003.99
2018-07-20T00:17:25.525Z,1003.96
2018-07-20T00:18:40.235Z,1004.01
2018-07-20T00:19:55.085Z,1003.98
2018-07-20T00:21:09.532Z,1003.91
2018-07-20T00:22:23.994Z,1003.98
2018-07-20T00:23:38.417Z,1003.99
2018-07-20T00:24:53.291Z,1003.93
2018-07-20T00:26:07.676Z,1004
2018-07-20T00:27:21.861Z,1003.95
2018-07-20T00:28:36.241Z,1003.95
2018-07-20T00:29:50.429Z,1003.94
2018-07-20T00:31:05.384Z,1003.95
2018-07-20T00:32:19.840Z,1003.94
2018-07-20T00:33:34.332Z,1003.95
2018-07-20T00:34:49.009Z,1003.93
2018-07-20T00:36:03.562Z,1003.89
2018-07-20T00:37:18.246Z,1003.9
2018-07-20T00:38:32.410Z,1003.86
2018-07-20T00:39:47.128Z,1003.85
2018-07-20T00:41:01.223Z,1003.86
2018-07-20T00:42:15.824Z,1003.85
2018-07-20T00:43:30.298Z,1003.86
2018-07-20T00:44:44.777Z,1003.84
2018-07-20T00:45:59.713Z,1003.84
2018-07-20T00:47:14.485Z,1003.84
2018-07-20T00:48:28.672Z,1003.84
2018-07-20T00:49:42.887Z,1003.83
2018-07-20T00:50:57.633Z,1003.87
2018-07-20T00:52:12.311Z,1003.86
2018-07-20T00:53:26.484Z,1003.87
2018-07-20T00:54:40.793Z,1003.85
2018-07-20T00:55:55.276Z,1003.82
2018-07-20T00:57:09.691Z,1003.85
2018-07-20T00:58:23.886Z,1003.85
2018-07-20T00:59:38.369Z,1003.82
2018-07-20T01:00:53.292Z,1003.85
2018-07-20T01:02:08.005Z,1003.86
2018-07-20T01:03:22.861Z,1003.83
2018-07-20T01:04:37.313Z,1003.8
2018-07-20T01:05:52.246Z,1003.81
2018-07-20T01:07:06.735Z,1003.77
2018-07-20T01:08:21.454Z,1003.8
2018-07-20T01:09:35.957Z,1003.82
2018-07-20T01:10:50.966Z,1003.8
2018-07-20T01:12:06.134Z,1003.79
2018-07-20T01:13:20.319Z,1003.8
2018-07-20T01:14:34.227Z,1003.78
2018-07-20T01:15:48.680Z,1003.73
2018-07-20T01:17:03.163Z,1003.74
2018-07-20T01:18:17.323Z,1003.75
2018-07-20T01:19:31.505Z,1003.72
2018-07-20T01:20:46.185Z,1003.76
2018-07-20T01:22:01.463Z,1003.72
2018-07-20T01:23:15.648Z,1003.71
2018-07-20T01:24:30.622Z,1003.75
2018-07-20T01:25:45.050Z,1003.74
2018-07-20T01:26:59.556Z,1003.73
2018-07-20T01:28:13.716Z,1003.74
2018-07-20T01:29:27.929Z,1003.73
2018-07-20T01:30:42.598Z,1003.72
2018-07-20T01:31:57.592Z,1003.74
2018-07-20T01:33:11.935Z,1003.7
2018-07-20T01:34:26.888Z,1003.73
2018-07-20T01:35:41.100Z,1003.72
2018-07-20T01:36:55.813Z,1003.7
2018-07-20T01:38:10.571Z,1003.74
2018-07-20T01:39:25.322Z,1003.71
2018-07-20T01:40:39.683Z,1003.69
2018-07-20T01:41:53.832Z,1003.72
2018-07-20T01:43:09.012Z,1003.69
2018-07-20T01:44:23.473Z,1003.72
2018-07-20T01:45:38.154Z,1003.71
2018-07-20T01:46:52.586Z,1003.73
2018-07-20T01:48:07.154Z,1003.73
2018-07-20T01:49:20.766Z,1003.71
2018-07-20T01:50:34.428Z,1003.73
2018-07-20T01:51:49.104Z,1003.74
2018-07-20T01:53:03.583Z,1003.72
2018-07-20T01:54:17.985Z,1003.72
2018-07-20T01:55:32.778Z,1003.77
2018-07-20T01:56:47.122Z,1003.74
2018-07-20T01:58:01.383Z,1003.74
2018-07-20T01:59:16.344Z,1003.73
2018-07-20T02:00:31.012Z,1003.75
2018-07-20T02:01:45.181Z,1003.75
2018-07-20T02:03:00.114Z,1003.78
2018-07-20T02:04:14.437Z,1003.76
2018-07-20T02:05:29.430Z,1003.79
2018-07-20T02:06:44.097Z,1003.78
2018-07-20T02:07:58.534Z,1003.78
2018-07-20T02:09:12.023Z,1003.77
2018-07-20T02:10:26.957Z,1003.73
2018-07-20T02:11:41.137Z,1003.77
2018-07-20T02:12:55.701Z,1003.75
2018-07-20T02:14:10.230Z,1003.76
2018-07-20T02:15:24.918Z,1003.74
2018-07-20T02:16:39.144Z,1003.76
2018-07-20T02:17:53.554Z,1003.73
2018-07-20T02:19:08.417Z,1003.75
2018-07-20T02:20:22.120Z,1003.73
2018-07-20T02:21:36.822Z,1003.77
2018-07-20T02:22:51.283Z,1003.79
2018-07-20T02:24:06.277Z,1003.79
2018-07-20T02:25:20.466Z,1003.74
2018-07-20T02:26:34.667Z,1003.75
2018-07-20T02:27:48.575Z,1003.72
2018-07-20T02:29:03.800Z,1003.72
2018-07-20T02:30:17.699Z,1003.71
2018-07-20T02:31:32.172Z,1003.67
2018-07-20T02:32:46.594Z,1003.72
2018-07-20T02:34:01.316Z,1003.68
2018-07-20T02:35:15.751Z,1003.66
2018-07-20T02:36:30.199Z,1003.67
2018-07-20T02:37:44.666Z,1003.67
2018-07-20T02:38:59.401Z,1003.65
2018-07-20T02:40:14.515Z,1003.66
2018-07-20T02:41:29.235Z,1003.62
2018-07-20T02:42:43.185Z,1003.67
2018-07-20T02:43:57.084Z,1003.61
2018-07-20T02:45:11.797Z,1003.6
2018-07-20T02:46:26.248Z,1003.61
2018-07-20T02:47:40.445Z,1003.63
2018-07-20T02:48:55.364Z,1003.64
2018-07-20T02:50:10.073Z,1003.62
2018-07-20T02:51:24.290Z,1003.65
2018-07-20T02:52:39.247Z,1003.61
2018-07-20T02:53:54.223Z,1003.6
2018-07-20T02:55:09.184Z,1003.61
2018-07-20T02:56:23.633Z,1003.59
2018-07-20T02:57:37.828Z,1003.6
2018-07-20T02:58:52.511Z,1003.61
2018-07-20T03:00:06.805Z,1003.61
2018-07-20T03:01:20.484Z,1003.6
2018-07-20T03:02:34.923Z,1003.61
2018-07-20T03:03:49.127Z,1003.63
2018-07-20T03:05:03.576Z,1003.62
2018-07-20T03:06:19.282Z,1003.64
2018-07-20T03:07:33.483Z,1003.66
2018-07-20T03:08:48.187Z,1003.63
2018-07-20T03:10:02.576Z,1003.65
2018-07-20T03:11:16.997Z,1003.63
2018-07-20T03:12:31.737Z,1003.66
2018-07-20T03:13:45.679Z,1003.64
2018-07-20T03:14:59.132Z,1003.65
2018-07-20T03:16:13.477Z,1003.66
2018-07-20T03:17:28.227Z,1003.7
2018-07-20T03:18:42.674Z,1003.7
2018-07-20T03:19:57.349Z,1003.69
2018-07-20T03:21:11.832Z,1003.64
2018-07-20T03:22:26.078Z,1003.67
2018-07-20T03:23:41.194Z,1003.65
2018-07-20T03:24:55.368Z,1003.64
2018-07-20T03:26:09.803Z,1003.64
2018-07-20T03:27:24.752Z,1003.62
2018-07-20T03:28:39.184Z,1003.63
2018-07-20T03:29:53.648Z,1003.65
2018-07-20T03:31:08.227Z,1003.62
2018-07-20T03:32:28.382Z,1003.63
2018-07-20T03:33:43.621Z,1003.63
2018-07-20T03:34:58.061Z,1003.63
2018-07-20T03:36:12.403Z,1003.62
2018-07-20T03:37:26.909Z,1003.64
2018-07-20T03:38:41.357Z,1003.59
2018-07-20T03:39:56.055Z,1003.63
2018-07-20T03:41:10.949Z,1003.6
2018-07-20T03:42:25.131Z,1003.6
2018-07-20T03:43:39.625Z,1003.61
2018-07-20T03:44:54.268Z,1003.61
2018-07-20T03:46:08.648Z,1003.56
2018-07-20T03:47:23.337Z,1003.58
2018-07-20T03:48:38.030Z,1003.56
2018-07-20T03:49:52.219Z,1003.59
2018-07-20T03:51:06.924Z,1003.55
2018-07-20T03:52:21.643Z,1003.52
2018-07-20T03:53:35.841Z,1003.52
2018-07-20T03:54:50.500Z,1003.5
2018-07-20T03:56:04.942Z,1003.52
2018-07-20T03:57:19.717Z,1003.53
2018-07-20T03:58:34.201Z,1003.54
2018-07-20T03:59:48.803Z,1003.51
2018-07-20T04:01:03.228Z,1003.54
2018-07-20T04:02:17.749Z,1003.47
2018-07-20T04:03:33.105Z,1003.49
2018-07-20T04:04:47.354Z,1003.49
2018-07-20T04:06:01.897Z,1003.51
2018-07-20T04:07:16.501Z,1003.49
2018-07-20T04:08:31.301Z,1003.44
2018-07-20T04:09:46.115Z,1003.42
2018-07-20T04:11:00.632Z,1003.41
2018-07-20T04:12:15.578Z,1003.38
2018-07-20T04:13:30.175Z,1003.42
2018-07-20T04:14:44.952Z,1003.44
2018-07-20T04:15:59.465Z,1003.45
2018-07-20T04:17:13.957Z,1003.44
2018-07-20T04:18:28.820Z,1003.43
2018-07-20T04:19:43.074Z,1003.42
2018-07-20T04:20:57.838Z,1003.44
2018-07-20T04:22:12.318Z,1003.43
2018-07-20T04:23:27.359Z,1003.43
2018-07-20T04:24:42.080Z,1003.44
2018-07-20T04:25:56.551Z,1003.41
2018-07-20T04:27:11.293Z,1003.41
2018-07-20T04:28:25.344Z,1003.39
2018-07-20T04:29:39.565Z,1003.39
2018-07-20T04:30:54.297Z,1003.41
2018-07-20T04:32:09.005Z,1003.43
2018-07-20T04:33:23.604Z,1003.42
2018-07-20T04:34:37.814Z,1003.41
2018-07-20T04:35:52.513Z,1003.41
2018-07-20T04:37:06.987Z,1003.43
2018-07-20T04:38:21.445Z,1003.43
2018-07-20T04:39:35.383Z,1003.44
2018-07-20T04:40:50.333Z,1003.45
2018-07-20T04:42:04.817Z,1003.41
2018-07-20T04:43:20.164Z,1003.47
2018-07-20T04:44:34.892Z,1003.45
2018-07-20T04:45:49.599Z,1003.42
2018-07-20T04:47:03.790Z,1003.45
2018-07-20T04:48:18.716Z,1003.4
2018-07-20T04:49:33.650Z,1003.41
2018-07-20T04:50:48.144Z,1003.41
2018-07-20T04:52:02.609Z,1003.42
2018-07-20T04:53:17.453Z,1003.47
2018-07-20T04:54:32.280Z,1003.47
2018-07-20T04:55:46.975Z,1003.46
2018-07-20T04:57:01.429Z,1003.5
2018-07-20T04:58:15.900Z,1003.48
2018-07-20T04:59:31.013Z,1003.46
2018-07-20T05:00:45.963Z,1003.44
2018-07-20T05:02:00.437Z,1003.41
2018-07-20T05:03:15.148Z,1003.42
2018-07-20T05:04:29.922Z,1003.47
2018-07-20T05:05:44.171Z,1003.48
2018-07-20T05:06:59.451Z,1003.42
2018-07-20T05:08:14.172Z,1003.43
2018-07-20T05:09:28.726Z,1003.5
2018-07-20T05:10:43.154Z,1003.51
2018-07-20T05:11:57.705Z,1003.52
2018-07-20T05:13:12.416Z,1003.52
2018-07-20T05:14:27.172Z,1003.48
2018-07-20T05:15:41.932Z,1003.51
2018-07-20T05:16:56.389Z,1003.48
2018-07-20T05:18:11.071Z,1003.47
2018-07-20T05:19:25.044Z,1003.48
2018-07-20T05:20:40.399Z,1003.48
2018-07-20T05:21:55.082Z,1003.5
2018-07-20T05:23:09.304Z,1003.46
2018-07-20T05:24:23.726Z,1003.47
2018-07-20T05:25:37.921Z,1003.48
2018-07-20T05:26:52.099Z,1003.39
2018-07-20T05:28:06.311Z,1003.45
2018-07-20T05:29:20.520Z,1003.46
2018-07-20T05:30:35.183Z,1003.43
2018-07-20T05:31:49.397Z,1003.44
2018-07-20T05:33:03.619Z,1003.4
2018-07-20T05:34:18.353Z,1003.38
2018-07-20T05:35:33.258Z,1003.38
2018-07-20T05:36:47.746Z,1003.36
2018-07-20T05:38:02.264Z,1003.3
2018-07-20T05:39:17.455Z,1003.29
2018-07-20T05:40:32.125Z,1003.34
2018-07-20T05:41:46.068Z,1003.32
2018-07-20T05:43:00.053Z,1003.32
2018-07-20T05:44:14.247Z,1003.27
2018-07-20T05:45:29.336Z,1003.28
2018-07-20T05:46:44.291Z,1003.32
2018-07-20T05:47:59.282Z,1003.28
2018-07-20T05:49:14.449Z,1003.3
2018-07-20T05:50:29.501Z,1003.31
2018-07-20T05:51:43.967Z,1003.26
2018-07-20T05:52:58.441Z,1003.3
2018-07-20T05:54:12.905Z,1003.26
2018-07-20T05:55:27.599Z,1003.24
2018-07-20T05:56:42.062Z,1003.25
2018-07-20T05:57:56.277Z,1003.24
2018-07-20T05:59:10.981Z,1003.31
2018-07-20T06:00:25.700Z,1003.25
2018-07-20T06:01:40.586Z,1003.24
2018-07-20T06:02:55.284Z,1003.26
2018-07-20T06:04:09.803Z,1003.26
2018-07-20T06:05:24.002Z,1003.23
2018-07-20T06:06:38.963Z,1003.21
2018-07-20T06:07:54.009Z,1003.19
2018-07-20T06:09:08.749Z,1003.16
2018-07-20T06:10:22.962Z,1003.17
2018-07-20T06:11:37.895Z,1003.21
2018-07-20T06:12:52.115Z,1003.15
2018-07-20T06:14:06.891Z,1003.18
2018-07-20T06:15:21.311Z,1003.18
2018-07-20T06:16:35.687Z,1003.16
2018-07-20T06:17:50.654Z,1003.17
2018-07-20T06:19:05.907Z,1003.19
2018-07-20T06:20:21.045Z,1003.14
2018-07-20T06:21:35.720Z,1003.1
2018-07-20T06:22:50.571Z,1003.08
2018-07-20T06:24:05.390Z,1003.16
2018-07-20T06:25:19.883Z,1003.1
2018-07-20T06:26:34.771Z,1003.13
2018-07-20T06:27:49.880Z,1003.15
2018-07-20T06:29:04.613Z,1003.12
2018-07-20T06:30:18.849Z,1003.11
2018-07-20T06:31:33.605Z,1003.13
2018-07-20T06:32:48.130Z,1003.1
2018-07-20T06:34:02.372Z,1003.1
2018-07-20T06:35:16.597Z,1003.08
2018-07-20T06:36:31.091Z,1003.11
2018-07-20T06:37:46.026Z,1003.09
2018-07-20T06:39:00.510Z,1003.08
2018-07-20T06:40:14.508Z,1003.08
2018-07-20T06:41:29.010Z,1003.08
2018-07-20T06:42:43.239Z,1003.04
2018-07-20T06:43:57.760Z,1003.09
2018-07-20T06:45:12.237Z,1003.08
2018-07-20T06:46:27.278Z,1003.07
2018-07-20T06:47:42.019Z,1003.13
2018-07-20T06:48:57.012Z,1003.04
2018-07-20T06:50:11.614Z,1003.11
2018-07-20T06:51:26.400Z,1003.13
2018-07-20T06:52:41.946Z,1003.15
2018-07-20T06:53:56.510Z,1003.12
2018-07-20T06:55:11.506Z,1003.18
2018-07-20T06:56:26.303Z,1003.23
2018-07-20T06:57:41.503Z,1003.24
2018-07-20T06:58:56.031Z,1003.21
2018-07-20T07:00:11.010Z,1003.19
2018-07-20T07:01:25.776Z,1003.21
2018-07-20T07:02:40.646Z,1003.22
2018-07-20T07:03:55.346Z,1003.2
2018-07-20T07:05:10.339Z,1003.21
2018-07-20T07:06:25.099Z,1003.16
2018-07-20T07:07:39.887Z,1003.17
2018-07-20T07:08:54.606Z,1003.16
2018-07-20T07:10:08.556Z,1003.17
2018-07-20T07:11:23.271Z,1003.16
2018-07-20T07:12:38.193Z,1003.16
2018-07-20T07:13:52.671Z,1003.13
2018-07-20T07:15:06.716Z,1003.15
2018-07-20T07:16:22.165Z,1003.14
2018-07-20T07:17:36.919Z,1003.13
2018-07-20T07:18:51.910Z,1003.16
2018-07-20T07:20:06.441Z,1003.18
2018-07-20T07:21:20.927Z,1003.17
2018-07-20T07:22:34.892Z,1003.17
2018-07-20T07:23:49.761Z,1003.2
2018-07-20T07:25:04.502Z,1003.21
2018-07-20T07:26:18.985Z,1003.24
2018-07-20T07:27:34.059Z,1003.23
2018-07-20T07:28:48.950Z,1003.22
2018-07-20T07:30:03.673Z,1003.19
2018-07-20T07:31:17.885Z,1003.19
2018-07-20T07:32:32.184Z,1003.17
2018-07-20T07:33:47.252Z,1003.18
2018-07-20T07:35:01.432Z,1003.15
2018-07-20T07:36:15.685Z,1003.22
2018-07-20T07:37:29.126Z,1003.19
2018-07-20T07:38:43.210Z,1003.16
2018-07-20T07:39:57.454Z,1003.19
2018-07-20T07:41:12.221Z,1003.17
2018-07-20T07:42:26.709Z,1003.14
2018-07-20T07:43:41.260Z,1003.17
2018-07-20T07:44:55.777Z,1003.14
2018-07-20T07:46:10.731Z,1003.15
2018-07-20T07:47:25.473Z,1003.12
2018-07-20T07:48:40.582Z,1003.14
2018-07-20T07:49:54.846Z,1003.11
2018-07-20T07:51:09.341Z,1003.12
2018-07-20T07:52:23.830Z,1003.12
2018-07-20T07:53:38.349Z,1003.12
2018-07-20T07:54:53.133Z,1003.13
2018-07-20T07:56:08.019Z,1003.09
2018-07-20T07:57:23.249Z,1003.03
2018-07-20T07:58:37.720Z,1003.09
2018-07-20T07:59:52.249Z,1003.09
2018-07-20T08:01:07.248Z,1003.11
2018-07-20T08:02:21.204Z,1003.12
2018-07-20T08:03:35.996Z,1003.05
2018-07-20T08:04:50.791Z,1003
2018-07-20T08:06:05.294Z,1003.11
2018-07-20T08:07:20.283Z,1003.08
2018-07-20T08:08:34.814Z,1003.09
2018-07-20T08:09:49.592Z,1003.08
2018-07-20T08:11:05.115Z,1003.06
2018-07-20T08:12:20.182Z,1003.05
2018-07-20T08:13:34.642Z,1003.03
2018-07-20T08:14:48.867Z,1003.09
2018-07-20T08:16:03.569Z,1003.06
2018-07-20T08:17:18.032Z,1003.07
2018-07-20T08:18:33.026Z,1003.08
2018-07-20T08:19:47.597Z,1003.1
2018-07-20T08:21:02.298Z,1003.06
2018-07-20T08:22:16.534Z,1003.05
2018-07-20T08:23:31.522Z,1003.06
2018-07-20T08:24:46.076Z,1003.06
2018-07-20T08:26:00.278Z,1003.02
2018-07-20T08:27:15.022Z,1003.04
2018-07-20T08:28:29.758Z,1003.02
2018-07-20T08:29:43.964Z,1003
2018-07-20T08:30:58.833Z,1003.05
2018-07-20T08:32:13.499Z,1003.04
2018-07-20T08:33:27.992Z,1003.03
2018-07-20T08:34:42.184Z,1003.03
2018-07-20T08:35:57.003Z,1003.01
2018-07-20T08:37:11.489Z,1003.03
2018-07-20T08:38:25.941Z,1003.02
2018-07-20T08:39:40.708Z,1003.03
2018-07-20T08:40:55.152Z,1003.01
2018-07-20T08:42:09.457Z,1002.98
2018-07-20T08:43:24.437Z,1002.99
2018-07-20T08:44:39.139Z,1002.95
2018-07-20T08:45:53.764Z,1002.94
2018-07-20T08:47:07.966Z,1002.97
2018-07-20T08:48:22.135Z,1002.95
2018-07-20T08:49:36.078Z,1002.95
2018-07-20T08:50:50.537Z,1002.95
2018-07-20T08:52:05.287Z,1002.9
2018-07-20T08:53:19.724Z,1002.91
2018-07-20T08:54:34.968Z,1002.88
2018-07-20T08:55:49.811Z,1002.87
2018-07-20T08:57:04.269Z,1002.79
2018-07-20T08:58:18.973Z,1002.85
2018-07-20T08:59:33.965Z,1002.83
2018-07-20T09:00:48.619Z,1002.81
2018-07-20T09:02:03.153Z,1002.81
2018-07-20T09:03:18.321Z,1002.81
2018-07-20T09:04:33.452Z,1002.82
2018-07-20T09:05:47.923Z,1002.81
2018-07-20T09:07:02.662Z,1002.78
2018-07-20T09:08:16.668Z,1002.77
2018-07-20T09:09:31.384Z,1002.82
2018-07-20T09:10:45.605Z,1002.79
2018-07-20T09:12:00.377Z,1002.74
2018-07-20T09:13:14.608Z,1002.75
2018-07-20T09:14:29.560Z,1002.78
2018-07-20T09:15:44.315Z,1002.75
2018-07-20T09:16:58.931Z,1002.75
2018-07-20T09:18:13.646Z,1002.71
2018-07-20T09:19:28.553Z,1002.69
2018-07-20T09:20:43.203Z,1002.71
2018-07-20T09:21:58.167Z,1002.7
2018-07-20T09:23:12.406Z,1002.7
2018-07-20T09:24:27.079Z,1002.69
2018-07-20T09:25:41.520Z,1002.65
2018-07-20T09:26:56.381Z,1002.71
2018-07-20T09:28:10.878Z,1002.7
2018-07-20T09:29:24.999Z,1002.66
2018-07-20T09:30:39.750Z,1002.67
2018-07-20T09:31:53.628Z,1002.66
2018-07-20T09:33:08.364Z,1002.66
2018-07-20T09:34:22.843Z,1002.65
2018-07-20T09:35:37.316Z,1002.64
2018-07-20T09:36:52.020Z,1002.63
2018-07-20T09:38:06.808Z,1002.66
2018-07-20T09:39:21.516Z,1002.64
2018-07-20T09:40:36.282Z,1002.66
2018-07-20T09:41:50.502Z,1002.61
2018-07-20T09:43:05.432Z,1002.55
2018-07-20T09:44:19.942Z,1002.54
2018-07-20T09:45:35.187Z,1002.52
2018-07-20T09:46:49.898Z,1002.52
2018-07-20T09:48:04.548Z,1002.52
2018-07-20T09:49:19.573Z,1002.5
2018-07-20T09:50:34.034Z,1002.56
2018-07-20T09:51:48.744Z,1002.59
2018-07-20T09:53:02.952Z,1002.55
2018-07-20T09:54:18.053Z,1002.53
2018-07-20T09:55:33.059Z,1002.49
2018-07-20T09:56:47.001Z,1002.49
2018-07-20T09:58:01.363Z,1002.58
2018-07-20T09:59:16.100Z,1002.54
2018-07-20T10:00:30.727Z,1002.54
2018-07-20T10:01:45.425Z,1002.51
2018-07-20T10:02:59.647Z,1002.54
2018-07-20T10:04:13.890Z,1002.52
2018-07-20T10:05:28.580Z,1002.54
2018-07-20T10:06:42.521Z,1002.44
2018-07-20T10:07:57.078Z,1002.42
2018-07-20T10:09:11.558Z,1002.41
2018-07-20T10:10:26.025Z,1002.42
2018-07-20T10:11:40.230Z,1002.45
2018-07-20T10:12:54.472Z,1002.4
2018-07-20T10:14:09.120Z,1002.46
2018-07-20T10:15:23.611Z,1002.39
2018-07-20T10:16:38.325Z,1002.43
2018-07-20T10:17:52.769Z,1002.42
2018-07-20T10:19:07.892Z,1002.45
2018-07-20T10:20:22.283Z,1002.41
2018-07-20T10:21:37.235Z,1002.43
2018-07-20T10:22:52.233Z,1002.32
2018-07-20T10:24:07.131Z,1002.32
2018-07-20T10:25:21.620Z,1002.31
2018-07-20T10:26:36.310Z,1002.28
2018-07-20T10:27:50.515Z,1002.31
2018-07-20T10:29:05.174Z,1002.4
2018-07-20T10:30:19.845Z,1002.33
2018-07-20T10:31:34.359Z,1002.35
2018-07-20T10:32:48.558Z,1002.35
2018-07-20T10:34:03.470Z,1002.3
2018-07-20T10:35:17.883Z,1002.25
2018-07-20T10:36:32.617Z,1002.26
2018-07-20T10:37:47.343Z,1002.2
2018-07-20T10:39:01.637Z,1002.24
2018-07-20T10:40:16.372Z,1002.22
2018-07-20T10:41:31.126Z,1002.22
2018-07-20T10:42:46.134Z,1002.18
2018-07-20T10:44:00.899Z,1002.19
2018-07-20T10:45:15.158Z,1002.21
2018-07-20T10:46:29.897Z,1002.22
2018-07-20T10:47:44.115Z,1002.2
2018-07-20T10:48:58.581Z,1002.15
2018-07-20T10:50:13.289Z,1002.16
2018-07-20T10:51:27.744Z,1002.18
2018-07-20T10:52:42.739Z,1002.21
2018-07-20T10:53:57.199Z,1002.18
2018-07-20T10:55:11.848Z,1002.11
2018-07-20T10:56:26.278Z,1002.17
2018-07-20T10:57:40.511Z,1002.15
2018-07-20T10:58:54.750Z,1002.14
2018-07-20T11:00:09.364Z,1002.1
2018-07-20T11:01:22.919Z,1002.06
2018-07-20T11:02:37.994Z,1002
2018-07-20T11:03:52.414Z,1002.08
2018-07-20T11:05:07.023Z,1002.08
2018-07-20T11:06:21.529Z,1002.08
2018-07-20T11:07:36.435Z,1002.03
2018-07-20T11:08:50.924Z,1001.93
2018-07-20T11:10:05.732Z,1001.9
2018-07-20T11:11:19.557Z,1001.87
2018-07-20T11:12:34.522Z,1001.83
2018-07-20T11:13:49.295Z,1001.85
2018-07-20T11:15:03.619Z,1001.85
2018-07-20T11:16:18.075Z,1001.84
2018-07-20T11:17:32.550Z,1001.8
2018-07-20T11:18:46.794Z,1001.76
2018-07-20T11:20:01.451Z,1001.8
2018-07-20T11:21:16.209Z,1001.77
2018-07-20T11:22:30.956Z,1001.79
2018-07-20T11:23:45.996Z,1001.75
2018-07-20T11:25:00.500Z,1001.8
2018-07-20T11:26:14.869Z,1001.74
2018-07-20T11:27:29.079Z,1001.72
2018-07-20T11:28:43.343Z,1001.74
2018-07-20T11:29:57.832Z,1001.76
2018-07-20T11:31:12.664Z,1001.75
2018-07-20T11:32:27.319Z,1001.74
2018-07-20T11:33:42.054Z,1001.69
2018-07-20T11:34:56.273Z,1001.67
2018-07-20T11:36:11.345Z,1001.7
2018-07-20T11:37:25.838Z,1001.67
2018-07-20T11:38:40.164Z,1001.65
2018-07-20T11:39:53.671Z,1001.59
2018-07-20T11:41:08.479Z,1001.55
2018-07-20T11:42:23.425Z,1001.53
2018-07-20T11:43:37.640Z,1001.6
2018-07-20T11:44:52.115Z,1001.6
2018-07-20T11:46:06.490Z,1001.55
2018-07-20T11:47:20.947Z,1001.49
2018-07-20T11:48:35.910Z,1001.52
2018-07-20T11:49:50.616Z,1001.5
2018-07-20T11:51:05.561Z,1001.58
2018-07-20T11:52:19.526Z,1001.68
2018-07-20T11:53:33.730Z,1001.51
2018-07-20T11:54:48.439Z,1001.52
2018-07-20T11:56:03.185Z,1001.61
2018-07-20T11:57:17.101Z,1001.47
2018-07-20T11:58:31.539Z,1001.54
2018-07-20T11:59:45.990Z,1001.52
2018-07-20T12:01:01.196Z,1001.43
2018-07-20T12:02:16.443Z,1001.35
2018-07-20T12:03:31.141Z,1001.34
2018-07-20T12:04:45.671Z,1001.34
2018-07-20T12:06:00.154Z,1001.49
2018-07-20T12:07:14.513Z,1001.42
2018-07-20T12:08:29.237Z,1001.4
2018-07-20T12:09:43.172Z,1001.34
2018-07-20T12:10:57.654Z,1001.31
2018-07-20T12:12:11.882Z,1001.32
2018-07-20T12:13:27.011Z,1001.25
2018-07-20T12:14:41.257Z,1001.27
2018-07-20T12:15:56.035Z,1001.25
2018-07-20T12:17:10.800Z,1001.32
2018-07-20T12:18:25.422Z,1001.29
2018-07-20T12:19:39.848Z,1001.21
2018-07-20T12:20:54.624Z,1001.21
2018-07-20T12:22:09.235Z,1001.18
2018-07-20T12:23:23.978Z,1001.19
2018-07-20T12:24:38.707Z,1001.15
2018-07-20T12:25:53.188Z,1001.08
2018-07-20T12:27:08.139Z,1001.16
2018-07-20T12:28:23.167Z,1001.15
2018-07-20T12:29:38.182Z,1001.1
2018-07-20T12:30:52.684Z,1001.14
2018-07-20T12:32:07.916Z,1001.09
2018-07-20T12:33:21.637Z,1001.06
2018-07-20T12:34:36.595Z,1001.07
2018-07-20T12:35:51.347Z,1001.03
2018-07-20T12:37:05.924Z,1001.02
2018-07-20T12:38:20.625Z,1001
2018-07-20T12:39:35.365Z,1000.96
2018-07-20T12:40:49.842Z,1001
2018-07-20T12:42:04.576Z,1001.02
2018-07-20T12:43:19.382Z,1001.04
2018-07-20T12:44:33.127Z,1000.99
2018-07-20T12:45:47.810Z,1001.03
2018-07-20T12:47:02.512Z,1001
2018-07-20T12:48:17.071Z,1001
2018-07-20T12:49:31.536Z,1001.01
2018-07-20T12:50:45.538Z,1001.03
2018-07-20T12:52:00.514Z,1000.95
2018-07-20T12:53:14.675Z,1000.99
2018-07-20T12:54:29.476Z,1001.02
2018-07-20T12:55:44.182Z,1001.01
2018-07-20T12:56:58.898Z,1001.05
2018-07-20T12:58:13.491Z,1001.03
2018-07-20T12:59:27.888Z,1001
2018-07-20T13:00:42.094Z,1000.92
2018-07-20T13:01:56.802Z,1000.86
2018-07-20T13:03:11.863Z,1000.9
2018-07-20T13:04:26.352Z,1000.88
2018-07-20T13:05:41.096Z,1000.96
2018-07-20T13:06:55.289Z,1000.94
2018-07-20T13:08:09.753Z,1000.89
2018-07-20T13:09:24.508Z,1000.84
2018-07-20T13:10:38.806Z,1000.82
2018-07-20T13:11:54.067Z,1000.85
2018-07-20T13:13:09.681Z,1000.83
2018-07-20T13:14:24.492Z,1000.91
2018-07-20T13:15:39.188Z,1000.84
2018-07-20T13:16:53.617Z,1000.88
2018-07-20T13:18:08.386Z,1000.93
2018-07-20T13:19:23.630Z,1000.87
2018-07-20T13:20:38.095Z,1000.8
2018-07-20T13:21:53.226Z,1000.8
2018-07-20T13:23:08.174Z,1000.8
2018-07-20T13:24:23.451Z,1000.82
2018-07-20T13:25:38.212Z,1000.94
2018-07-20T13:26:52.227Z,1000.88
2018-07-20T13:28:07.231Z,1000.8
2018-07-20T13:29:22.157Z,1000.7
2018-07-20T13:30:36.427Z,1000.69
2018-07-20T13:31:51.147Z,1000.7
2018-07-20T13:33:07.972Z,1000.63
2018-07-20T13:34:24.680Z,1000.61
2018-07-20T13:35:41.796Z,1000.64
2018-07-20T13:36:58.165Z,1000.66
2018-07-20T13:38:15.015Z,1000.65
2018-07-20T13:39:32.792Z,1000.61
2018-07-20T13:40:50.279Z,1000.59
2018-07-20T13:42:06.359Z,1000.57
2018-07-20T13:43:21.754Z,1000.52
2018-07-20T13:44:36.483Z,1000.48
2018-07-20T13:45:50.962Z,1000.48
2018-07-20T13:47:05.437Z,1000.46
2018-07-20T13:48:19.925Z,1000.46
2018-07-20T13:49:35.115Z,1000.44
2018-07-20T13:50:48.799Z,1000.39
2018-07-20T13:52:03.047Z,1000.37
2018-07-20T13:53:17.300Z,1000.34
2018-07-20T13:54:31.394Z,1000.4
2018-07-20T13:55:45.878Z,1000.4
2018-07-20T13:57:00.621Z,1000.29
2018-07-20T13:58:15.078Z,1000.28
2018-07-20T13:59:30.181Z,1000.33
2018-07-20T14:00:44.957Z,1000.29
2018-07-20T14:01:59.425Z,1000.31
2018-07-20T14:03:13.888Z,1000.26
2018-07-20T14:04:28.620Z,1000.23
2018-07-20T14:05:43.393Z,1000.17
2018-07-20T14:06:57.920Z,1000.2
2018-07-20T14:08:12.398Z,1000.16
2018-07-20T14:09:27.307Z,1000.17
2018-07-20T14:10:41.739Z,1000.14
2018-07-20T14:11:56.195Z,1000.15
2018-07-20T14:13:10.689Z,1000.12
2018-07-20T14:14:25.889Z,1000.13
2018-07-20T14:15:40.343Z,1000.13
2018-07-20T14:16:54.802Z,1000.15
2018-07-20T14:18:09.306Z,1000.05
2018-07-20T14:19:24.045Z,1000.12
2018-07-20T14:20:38.975Z,1000.04
2018-07-20T14:21:53.186Z,1000.24
2018-07-20T14:23:07.729Z,1000.16
2018-07-20T14:24:22.474Z,1000.07
2018-07-20T14:25:37.203Z,1000.05
2018-07-20T14:26:51.755Z,1000.03
2018-07-20T14:28:06.516Z,1000.04
2018-07-20T14:29:21.279Z,1000.07
2018-07-20T14:30:36.027Z,1000.02
2018-07-20T14:31:50.878Z,1000.08
2018-07-20T14:33:06.182Z,1000.08
2018-07-20T14:34:20.879Z,1000.07
2018-07-20T14:35:34.965Z,1000.04
2018-07-20T14:36:49.453Z,1000.09
2018-07-20T14:38:04.237Z,1000.16
2018-07-20T14:39:19.012Z,1000.14
2018-07-20T14:40:33.983Z,1000.07
2018-07-20T14:41:48.522Z,1000.04
2018-07-20T14:43:03.334Z,999.98
2018-07-20T14:44:18.268Z,1000.06
2018-07-20T14:45:32.744Z,1000.12
2018-07-20T14:46:47.788Z,1000.05
2018-07-20T14:48:02.260Z,999.98
2018-07-20T14:49:16.955Z,999.98
2018-07-20T14:50:31.659Z,1000.03
2018-07-20T14:51:46.668Z,999.99
2018-07-20T14:53:01.556Z,999.95
2018-07-20T14:54:15.355Z,999.91
2018-07-20T14:55:30.324Z,999.92
2018-07-20T14:56:44.852Z,999.91
2018-07-20T14:57:59.318Z,999.92
2018-07-20T14:59:14.290Z,999.91
2018-07-20T15:00:28.802Z,999.89
2018-07-20T15:01:46.481Z,999.89
2018-07-20T15:03:01.000Z,999.91
2018-07-20T15:04:15.595Z,999.88
2018-07-20T15:05:30.725Z,999.9
2018-07-20T15:06:45.441Z,999.82
2018-07-20T15:08:00.656Z,999.84